Airfield :
LOGIN :

Register | Disclaimer

   EN    FR    IT 

 










Legend :    VFR   Marginal VFR   IFR   Intensive IFR   Very Intensive IFR
Visi :
Ceiling :
>= 8 km
>= 3000ft
5 to 8 km
1000 to 3000 ft
1500m to 5 km
500 to 1000 ft
800 to 1500m
200 to 500 ft
< 800m
< 200 ft
Symbols :   Thunderstorms  Fog  Heavy snow  Heavy precipitations  Wind > 20 kt
SIGMETs :     Misc.  Thunderstorms  Icing  Turbulence  Mountain Waves  Volcanic Ashes






- Airport Elevation : 909 ft
- IATA code : KSF


EDVK - Kassel Calden

CURRENT METAR :
  • 090920Z 18015KT 9999 -DZ SCT028 BKN073 05/03 Q0996

EXPIRED METARs :
  • 090850Z 18014KT 9999 -DZ SCT020 BKN036 05/03 Q0996
  • 090820Z 19013KT 9999 -DZ FEW021 BKN030 05/03 Q0997
  • 090750Z 18012KT 9999 FEW021 BKN035 05/03 Q0997
  • 090720Z 18012KT 140V210 9999 -DZ FEW038 BKN045 06/02 Q0997
  • 090650Z 18013KT 9999 SCT041 BKN060 06/02 Q0997

TAF TAF EDVK
Valid from the 09 at 09:00 until the 09 at 18:00 UTC


090800Z 0909/0918 20015G25KT 9999 BKN025
PROB30
TEMPO 0909/0911 24020G30KT SHRA BKN012CB
BECMG 0911/0913 24010KT
TEMPO 0914/0918 3000 SHRAGS BKN008CB



MET'MAP, your aeronautical weather chart ! - Copyright ORBIFLY December 2007 - Disclaimer

ORBIFLY MET'MAP TEAM :

Programming & Development : Alexandra Zaïnal
Concept & original design : Baudouin d'Aumeries
Assistance for programming : Marc-Olivier Méhu
Technical & hardware support : Manuel Goepfert

Contact : metmap@orbifly.com




SOURCES & CREDITS :

   NOAA